Terminal Aerodrome Forecast
Issued by NWS

Home | Current Version | Previous Version | Text Only | Print | Product List | Glossary Off
Versions: 1 2 3 4 5 6 7 8 9 10 11 12 13 14 15 16 17 18

000
FTUS43 KMPX 191100 RRA
TAFRWF
TAF
KRWF 191142Z 1912/2012 19019G24KT P6SM SCT020 OVC050
     FM191230 19019G24KT P6SM VCSH OVC015
     FM191700 19014G20KT P6SM FEW015 BKN035 OVC250
     FM192100 21012KT P6SM BKN050
     FM200800 28008KT P6SM BKN250=

USA.gov is the U.S. government's official web portal to all federal, state and local government web resources and services.